Barchart Demo Center

Overview

Stocks

Stock Screeners

ETFs

Futures

Funds

Fund Screeners

Foreign Exchange

Sectors

News

Financial Calculators

Embedded Widgets

Portfolio

Screener

JSON Feeds

What's Hot

United States|Canada
English|French

Trending Up by Volatility

Sym Name Exchange Standard Deviation High Low Last Change Percent Volume Last Update
ROOT.TO Roots Corporation TSX +3.73 2.28 2.06 2.28 +0.24 +11.76% 122,900 11/14/19
WED.VN The Westaim Corp TSX-V +3.70 2.710 2.570 2.700 +0.140 +5.47% 88,821 11/14/19
CGX.TO Cineplex Inc TSX +3.47 24.99 24.14 24.32 +1.22 +5.28% 947,291 11/14/19
SPB.TO Superior Plus Corp TSX +3.41 12.80 12.15 12.67 +0.73 +6.11% 1,323,952 11/14/19
XX.VN Avante Logixx Inc TSX-V +3.30 1.500 1.200 1.350 +0.240 +21.62% 76,876 11/14/19
MTY.TO Mty Food Group Inc TSX +3.30 56.86 54.38 56.46 +2.46 +4.56% 140,340 11/14/19
SIS.TO Savaria Corp TSX +3.24 14.92 14.25 14.61 +0.68 +4.88% 625,627 11/14/19
AFN.TO Ag Growth International Inc TSX +3.21 47.49 44.92 47.31 +3.39 +7.72% 121,805 11/14/19
CMG.TO Computer Modelling Group Ltd TSX +3.08 8.79 8.06 8.70 +0.66 +8.21% 204,148 11/14/19
AKG.TO Asanko Gold Inc TSX +2.84 1.12 1.03 1.12 +0.07 +6.67% 94,799 11/14/19
MRT-UN.TO Morguard Un TSX +2.69 11.79 11.46 11.79 +0.29 +2.52% 35,194 11/14/19
RBA.TO Ritchie Bros Auctioneers Inc TSX +2.65 56.26 54.93 56.19 +1.12 +2.03% 138,880 11/14/19
MEQ.TO Mainstreet Eq J TSX +2.62 68.01 65.92 68.00 +2.10 +3.19% 18,450 11/14/19
CLIQ.TO Alcanna Inc TSX +2.55 4.50 4.11 4.44 +0.19 +4.47% 180,814 11/14/19
MDNA.TO Medicenna Therapeutics Corp TSX +2.48 1.49 1.37 1.49 +0.13 +9.56% 134,400 11/14/19
DRM.TO Dream Unlimited Corp TSX +2.44 11.83 11.11 11.69 +0.55 +4.94% 82,009 11/14/19
SUVA-A.VN Starlight US Multi Family No 1 TSX-V +2.38 11.100 10.990 11.100 +0.700 +6.73% 99,200 11/14/19
KNT.VN K92 Mining Inc TSX-V +2.36 2.160 2.010 2.090 +0.120 +6.09% 408,790 11/14/19
HR-UN.TO H&R Real Estate Inv Trust TSX +2.26 21.90 21.61 21.88 +0.20 +0.92% 504,933 11/14/19
CAR-UN.TO CDN Apartment Un TSX +2.21 54.46 53.19 54.38 +1.06 +1.99% 610,745 11/14/19
FIH-U.TO Fairfax India Holdings Corporation USD TSX +2.17 12.00 11.73 12.00 +0.24 +2.04% 29,301 11/14/19
MOGO.TO Mogo Inc TSX +2.10 3.78 3.50 3.68 +0.16 +4.55% 26,782 11/14/19
SMU-UN.TO Summit Industrial Income REIT TSX +2.07 12.91 12.56 12.89 +0.24 +1.90% 469,336 11/14/19
BAM-A.TO Brookfield Asset Management Inc Cl.A Lv TSX +2.07 77.06 74.91 76.57 +1.01 +1.34% 1,342,057 11/14/19
NPI.TO Northland Power Inc TSX +2.05 27.39 26.80 27.31 +0.59 +2.21% 437,014 11/14/19
CUF-UN.TO Cominar R E Un TSX +2.04 14.19 13.84 14.17 +0.32 +2.31% 346,136 11/14/19
ZUT.TO BMO Equal Weight Utilities Index ETF TSX +2.04 19.99 19.78 19.90 +0.17 +0.86% 20,641 11/14/19
ACQ.TO Autocanada Inc TSX +2.02 11.85 10.84 11.85 +1.06 +9.82% 270,261 11/14/19
NA.TO National Bank of Canada TSX +2.02 69.67 69.04 69.64 +0.27 +0.39% 514,296 11/14/19
WJX.TO Wajax Corp TSX +2.01 14.94 14.53 14.89 +0.33 +2.27% 42,340 11/14/19
JWEL.TO Jamieson Wellness Inc TSX +2.00 26.03 24.90 25.92 +0.67 +2.65% 73,127 11/14/19
DIR-UN.TO Dream Industrial REIT TSX +1.98 13.75 13.57 13.75 +0.18 +1.33% 163,381 11/14/19
FCSB.TO Fidelity Canadian Short Term Corp Bd ETF TSX +1.97 25.11 25.10 25.10 +0.09 +0.36% 23,088 11/14/19
LCS.TO Brompton Lifeco Split Corp Class A TSX +1.91 6.13 5.91 6.13 +0.16 +2.68% 72,076 11/14/19
GOLD.TO Goldmining Inc TSX +1.91 1.07 0.98 1.05 +0.07 +7.14% 92,433 11/14/19
BLDP.TO Ballard Power Systems Inc TSX +1.90 8.75 8.29 8.71 +0.50 +6.09% 617,010 11/14/19
FRU.TO Freehold Royalties Ltd TSX +1.85 6.92 6.72 6.84 +0.21 +3.17% 726,616 11/14/19
LNF.TO Leons Furniture TSX +1.84 15.43 14.85 15.24 +0.39 +2.63% 15,569 11/14/19
XRE.TO Ishares S&P TSX Capped REIT Index ETF TSX +1.83 19.96 19.75 19.95 +0.20 +1.01% 77,789 11/14/19
AXU.TO Alexco Resource Corp TSX +1.81 2.42 2.24 2.42 +0.17 +7.56% 273,568 11/14/19
HMJI.TO Betapro Marijuana Cos Inverse ETF TSX +1.81 39.00 37.94 38.20 +2.00 +5.52% 14,008 11/14/19
H.TO Hydro One Limited TSX +1.72 24.43 23.92 24.27 +0.28 +1.17% 550,504 11/14/19
CERV.TO Cervus Equipment Corp TSX +1.72 8.46 8.33 8.40 +0.28 +3.45% 10,269 11/14/19
GCM.TO Gran Colombia Gold Corp TSX +1.70 4.93 4.78 4.92 +0.19 +4.02% 147,542 11/14/19
DLR-U.TO Horizons US Dollar Currency ETF USD TSX +1.70 10.16 10.15 10.16 +0.01 +0.10% 125,756 11/14/19
CHW.TO Chesswood Group Limited TSX +1.68 10.31 9.56 10.15 +0.51 +5.29% 49,975 11/14/19
SMT.TO Sierra Metals Inc TSX +1.66 2.00 1.90 1.98 +0.20 +11.24% 15,833 11/14/19
DOL.TO Dollarama Inc TSX +1.66 47.18 46.25 47.05 +0.67 +1.44% 311,165 11/14/19
XTC.TO Exco Tech TSX +1.66 8.08 7.93 8.08 +0.18 +2.28% 26,150 11/14/19
ZRE.TO BMO Equal Weight Reits Index ETF TSX +1.64 25.10 24.86 25.10 +0.23 +0.92% 20,527 11/14/19
Displaying Top 50 Results